Accueil
METAR-TAF:

METAR-TAF

Aéroports :

Base d'aéronautique navale de Lanvéoc-Poulmic

Lanvéoc, France

latitude: 48-17N, longitude: 004-26W, altitude: 87 m

Observation

Le bulletin a été fait il y a 27 minutes, à 02:30 UTC
Vent 9 kt de nord-est
Température 6°C
Humidité 93%
Pression 1018 hPa
Visibilité 10 km ou plus

METAR: LFRL 030230Z AUTO 04009KT 9999 BKN027/// BKN033/// BKN040/// //////TCU 06/05 Q1018

Heure: 03:57 (02:57 UTC)

Prévision

Le bulletin a été fait il y a 15 heures et 57 minutes, à 11:00 UTC
Prévision valable du 02 à 12 UTC au 03 à 12 UTC
Vent 8 kt de est
Visibilité: 7000 m
Evoluant progressivement
du 02 à 15 UTC au 02 à 17 UTC
Nuages fragmentés à une hauteur de 1500 ft
Temporairement
du 02 à 18 UTC au 02 à 22 UTC
pluie faible
Temporairement
du 02 à 22 UTC au 03 à 08 UTC
Visibilité: 4000 m
averses de pluie

TAF: LFRL 021100Z 0212/0312 09008KT 7000 NSC BECMG 0215/0217 BKN015 TEMPO 0218/0222 -RA TEMPO 0222/0308 4000 SHRA

Observations et prévisions météorologiques de plus de 4000 aéroports (messages METAR et TAF).

Les stations disponibles sont représentées par des disques jaunes et rouges sur la carte.

Passer la souris dessus pour voir le nom de la station.

Cliquer dessus pour voir les observations et prévisions météorologiques.

Pour changer de carte: cliquez sur les boutons verts avec une croix noire pour zoomer, sur le bouton vert avec un tiret pour effectuer un zoom arrière, ou sur les flèches vertes pour les cartes adjacentes.


METAR-TAF: